sensor_id;sensor_type;location;lat;lon;timestamp;P1;durP1;ratioP1;P2;durP2;ratioP2
12587;SDS011;6359;51.450;7.346;2022-07-23T00:01:18;18.23;;;8.15;;
12587;SDS011;6359;51.450;7.346;2022-07-23T00:03:45;15.07;;;8.45;;
12587;SDS011;6359;51.450;7.346;2022-07-23T00:06:12;14.40;;;8.18;;
12587;SDS011;6359;51.450;7.346;2022-07-23T00:08:40;19.83;;;9.27;;
12587;SDS011;6359;51.450;7.346;2022-07-23T00:11:08;15.27;;;10.32;;
12587;SDS011;6359;51.450;7.346;2022-07-23T00:13:35;13.65;;;10.13;;
12587;SDS011;6359;51.450;7.346;2022-07-23T00:16:02;20.48;;;11.10;;
12587;SDS011;6359;51.450;7.346;2022-07-23T00:18:29;16.15;;;10.00;;
12587;SDS011;6359;51.450;7.346;2022-07-23T00:20:56;17.52;;;10.93;;
12587;SDS011;6359;51.450;7.346;2022-07-23T00:23:23;16.55;;;10.48;;
12587;SDS011;6359;51.450;7.346;2022-07-23T00:25:52;16.75;;;11.18;;
12587;SDS011;6359;51.450;7.346;2022-07-23T00:28:19;16.23;;;11.32;;
12587;SDS011;6359;51.450;7.346;2022-07-23T00:30:46;16.98;;;10.50;;
12587;SDS011;6359;51.450;7.346;2022-07-23T00:33:13;18.65;;;11.13;;
12587;SDS011;6359;51.450;7.346;2022-07-23T00:35:40;16.17;;;11.13;;
12587;SDS011;6359;51.450;7.346;2022-07-23T00:38:08;15.18;;;11.30;;
12587;SDS011;6359;51.450;7.346;2022-07-23T00:40:35;17.38;;;10.85;;
12587;SDS011;6359;51.450;7.346;2022-07-23T00:43:04;18.35;;;10.75;;
12587;SDS011;6359;51.450;7.346;2022-07-23T00:45:31;20.70;;;11.15;;
12587;SDS011;6359;51.450;7.346;2022-07-23T00:47:59;17.23;;;11.77;;
12587;SDS011;6359;51.450;7.346;2022-07-23T00:50:26;21.13;;;12.27;;
12587;SDS011;6359;51.450;7.346;2022-07-23T00:52:53;21.23;;;12.05;;
12587;SDS011;6359;51.450;7.346;2022-07-23T00:55:20;15.25;;;11.20;;
12587;SDS011;6359;51.450;7.346;2022-07-23T00:57:47;18.13;;;12.55;;
12587;SDS011;6359;51.450;7.346;2022-07-23T01:00:17;15.80;;;10.75;;
12587;SDS011;6359;51.450;7.346;2022-07-23T01:02:44;20.75;;;12.25;;
12587;SDS011;6359;51.450;7.346;2022-07-23T01:05:11;26.52;;;13.25;;
12587;SDS011;6359;51.450;7.346;2022-07-23T01:07:38;16.63;;;12.45;;
12587;SDS011;6359;51.450;7.346;2022-07-23T01:10:05;17.98;;;12.63;;
12587;SDS011;6359;51.450;7.346;2022-07-23T01:12:53;17.70;;;12.13;;
12587;SDS011;6359;51.450;7.346;2022-07-23T01:15:21;20.80;;;13.70;;
12587;SDS011;6359;51.450;7.346;2022-07-23T01:17:49;21.65;;;13.38;;
12587;SDS011;6359;51.450;7.346;2022-07-23T01:20:16;21.52;;;13.57;;
12587;SDS011;6359;51.450;7.346;2022-07-23T01:22:45;21.80;;;13.70;;
12587;SDS011;6359;51.450;7.346;2022-07-23T01:25:12;23.75;;;14.00;;
12587;SDS011;6359;51.450;7.346;2022-07-23T01:27:39;23.92;;;13.00;;
12587;SDS011;6359;51.450;7.346;2022-07-23T01:30:07;21.95;;;14.02;;
12587;SDS011;6359;51.450;7.346;2022-07-23T01:32:35;30.20;;;14.30;;
12587;SDS011;6359;51.450;7.346;2022-07-23T01:35:02;23.58;;;13.60;;
12587;SDS011;6359;51.450;7.346;2022-07-23T01:37:31;25.05;;;14.43;;
12587;SDS011;6359;51.450;7.346;2022-07-23T01:39:59;25.38;;;14.00;;
12587;SDS011;6359;51.450;7.346;2022-07-23T01:42:26;23.10;;;15.00;;
12587;SDS011;6359;51.450;7.346;2022-07-23T01:44:53;22.15;;;14.02;;
12587;SDS011;6359;51.450;7.346;2022-07-23T01:47:19;26.20;;;15.18;;
12587;SDS011;6359;51.450;7.346;2022-07-23T01:49:46;27.33;;;16.77;;
12587;SDS011;6359;51.450;7.346;2022-07-23T01:52:13;23.17;;;15.02;;
12587;SDS011;6359;51.450;7.346;2022-07-23T01:54:41;23.27;;;16.10;;
12587;SDS011;6359;51.450;7.346;2022-07-23T01:57:10;26.30;;;15.68;;
12587;SDS011;6359;51.450;7.346;2022-07-23T01:59:37;25.13;;;15.18;;
12587;SDS011;6359;51.450;7.346;2022-07-23T02:02:04;28.88;;;15.57;;
12587;SDS011;6359;51.450;7.346;2022-07-23T02:04:31;24.67;;;15.52;;
12587;SDS011;6359;51.450;7.346;2022-07-23T02:07:00;27.92;;;16.10;;
12587;SDS011;6359;51.450;7.346;2022-07-23T02:09:27;24.20;;;16.23;;
12587;SDS011;6359;51.450;7.346;2022-07-23T02:11:54;22.58;;;15.95;;
12587;SDS011;6359;51.450;7.346;2022-07-23T02:14:22;25.30;;;15.70;;
12587;SDS011;6359;51.450;7.346;2022-07-23T02:16:49;29.23;;;16.23;;
12587;SDS011;6359;51.450;7.346;2022-07-23T02:19:16;27.00;;;16.45;;
12587;SDS011;6359;51.450;7.346;2022-07-23T02:21:43;26.67;;;16.17;;
12587;SDS011;6359;51.450;7.346;2022-07-23T02:24:10;27.38;;;16.25;;
12587;SDS011;6359;51.450;7.346;2022-07-23T02:26:37;29.08;;;15.88;;
12587;SDS011;6359;51.450;7.346;2022-07-23T02:29:04;27.10;;;16.08;;
12587;SDS011;6359;51.450;7.346;2022-07-23T02:31:32;26.05;;;17.23;;
12587;SDS011;6359;51.450;7.346;2022-07-23T02:33:59;28.52;;;16.45;;
12587;SDS011;6359;51.450;7.346;2022-07-23T02:36:27;25.77;;;16.80;;
12587;SDS011;6359;51.450;7.346;2022-07-23T02:38:54;26.10;;;16.52;;
12587;SDS011;6359;51.450;7.346;2022-07-23T02:41:22;26.92;;;17.83;;
12587;SDS011;6359;51.450;7.346;2022-07-23T02:43:49;29.42;;;18.05;;
12587;SDS011;6359;51.450;7.346;2022-07-23T02:46:16;27.58;;;16.40;;
12587;SDS011;6359;51.450;7.346;2022-07-23T02:48:44;32.05;;;18.10;;
12587;SDS011;6359;51.450;7.346;2022-07-23T02:51:11;32.45;;;18.67;;
12587;SDS011;6359;51.450;7.346;2022-07-23T02:53:38;38.47;;;18.75;;
12587;SDS011;6359;51.450;7.346;2022-07-23T02:56:05;28.75;;;18.48;;
12587;SDS011;6359;51.450;7.346;2022-07-23T02:58:32;31.92;;;19.88;;
12587;SDS011;6359;51.450;7.346;2022-07-23T03:00:59;28.50;;;17.75;;
12587;SDS011;6359;51.450;7.346;2022-07-23T03:03:26;33.55;;;17.17;;
12587;SDS011;6359;51.450;7.346;2022-07-23T03:05:54;32.10;;;18.58;;
12587;SDS011;6359;51.450;7.346;2022-07-23T03:08:21;27.63;;;17.20;;
12587;SDS011;6359;51.450;7.346;2022-07-23T03:10:48;23.95;;;16.35;;
12587;SDS011;6359;51.450;7.346;2022-07-23T03:13:15;27.02;;;17.58;;
12587;SDS011;6359;51.450;7.346;2022-07-23T03:15:42;21.13;;;14.65;;
12587;SDS011;6359;51.450;7.346;2022-07-23T03:18:09;19.52;;;13.68;;
12587;SDS011;6359;51.450;7.346;2022-07-23T03:20:35;20.55;;;14.85;;
12587;SDS011;6359;51.450;7.346;2022-07-23T03:23:04;31.08;;;17.17;;
12587;SDS011;6359;51.450;7.346;2022-07-23T03:25:31;26.55;;;17.00;;
12587;SDS011;6359;51.450;7.346;2022-07-23T03:27:58;30.40;;;18.10;;
12587;SDS011;6359;51.450;7.346;2022-07-23T03:30:25;19.33;;;13.95;;
12587;SDS011;6359;51.450;7.346;2022-07-23T03:32:52;27.30;;;17.70;;
12587;SDS011;6359;51.450;7.346;2022-07-23T03:35:18;23.80;;;15.02;;
12587;SDS011;6359;51.450;7.346;2022-07-23T03:37:45;22.33;;;15.35;;
12587;SDS011;6359;51.450;7.346;2022-07-23T03:40:14;21.05;;;13.57;;
12587;SDS011;6359;51.450;7.346;2022-07-23T03:42:40;27.73;;;16.30;;
12587;SDS011;6359;51.450;7.346;2022-07-23T03:45:08;21.35;;;14.23;;
12587;SDS011;6359;51.450;7.346;2022-07-23T03:47:36;40.78;;;16.48;;
12587;SDS011;6359;51.450;7.346;2022-07-23T03:50:05;40.00;;;17.65;;
12587;SDS011;6359;51.450;7.346;2022-07-23T03:52:36;55.05;;;18.23;;
12587;SDS011;6359;51.450;7.346;2022-07-23T03:55:03;50.03;;;19.20;;
12587;SDS011;6359;51.450;7.346;2022-07-23T03:57:32;55.60;;;17.00;;
12587;SDS011;6359;51.450;7.346;2022-07-23T03:59:59;59.70;;;16.98;;
12587;SDS011;6359;51.450;7.346;2022-07-23T04:02:26;50.95;;;17.45;;
12587;SDS011;6359;51.450;7.346;2022-07-23T04:04:53;79.55;;;17.42;;
12587;SDS011;6359;51.450;7.346;2022-07-23T04:07:20;31.20;;;16.42;;
12587;SDS011;6359;51.450;7.346;2022-07-23T04:09:47;50.75;;;16.02;;
12587;SDS011;6359;51.450;7.346;2022-07-23T04:12:14;67.30;;;18.02;;
12587;SDS011;6359;51.450;7.346;2022-07-23T04:14:42;51.20;;;16.17;;
12587;SDS011;6359;51.450;7.346;2022-07-23T04:17:10;153.35;;;18.80;;
12587;SDS011;6359;51.450;7.346;2022-07-23T04:19:37;139.65;;;19.40;;
12587;SDS011;6359;51.450;7.346;2022-07-23T04:22:06;45.03;;;17.27;;
12587;SDS011;6359;51.450;7.346;2022-07-23T04:24:34;140.48;;;20.45;;
12587;SDS011;6359;51.450;7.346;2022-07-23T04:27:01;120.40;;;20.13;;
12587;SDS011;6359;51.450;7.346;2022-07-23T04:29:28;73.40;;;19.95;;
12587;SDS011;6359;51.450;7.346;2022-07-23T04:31:57;120.05;;;19.80;;
12587;SDS011;6359;51.450;7.346;2022-07-23T04:34:24;138.77;;;20.50;;
12587;SDS011;6359;51.450;7.346;2022-07-23T04:36:52;68.97;;;18.33;;
12587;SDS011;6359;51.450;7.346;2022-07-23T04:39:19;152.70;;;22.42;;
12587;SDS011;6359;51.450;7.346;2022-07-23T04:41:46;104.93;;;21.30;;
12587;SDS011;6359;51.450;7.346;2022-07-23T04:44:13;47.55;;;18.98;;
12587;SDS011;6359;51.450;7.346;2022-07-23T04:46:40;153.52;;;21.42;;
12587;SDS011;6359;51.450;7.346;2022-07-23T04:49:08;177.43;;;23.17;;
12587;SDS011;6359;51.450;7.346;2022-07-23T04:51:35;258.80;;;22.95;;
12587;SDS011;6359;51.450;7.346;2022-07-23T04:54:02;268.02;;;22.65;;
12587;SDS011;6359;51.450;7.346;2022-07-23T04:56:29;320.92;;;23.17;;
12587;SDS011;6359;51.450;7.346;2022-07-23T04:58:56;188.05;;;17.85;;
12587;SDS011;6359;51.450;7.346;2022-07-23T05:01:23;98.90;;;17.08;;
12587;SDS011;6359;51.450;7.346;2022-07-23T05:03:50;261.02;;;21.23;;
12587;SDS011;6359;51.450;7.346;2022-07-23T05:06:18;331.48;;;22.35;;
12587;SDS011;6359;51.450;7.346;2022-07-23T05:08:45;51.50;;;17.23;;
12587;SDS011;6359;51.450;7.346;2022-07-23T05:11:12;66.38;;;17.67;;
12587;SDS011;6359;51.450;7.346;2022-07-23T05:13:39;144.82;;;20.48;;
12587;SDS011;6359;51.450;7.346;2022-07-23T05:16:05;38.83;;;18.60;;
12587;SDS011;6359;51.450;7.346;2022-07-23T05:18:33;33.15;;;19.20;;
12587;SDS011;6359;51.450;7.346;2022-07-23T05:21:00;31.30;;;19.75;;
12587;SDS011;6359;51.450;7.346;2022-07-23T05:23:28;37.40;;;18.50;;
12587;SDS011;6359;51.450;7.346;2022-07-23T05:25:55;31.02;;;20.02;;
12587;SDS011;6359;51.450;7.346;2022-07-23T05:28:22;27.00;;;18.17;;
12587;SDS011;6359;51.450;7.346;2022-07-23T05:30:49;30.85;;;18.60;;
12587;SDS011;6359;51.450;7.346;2022-07-23T05:33:17;31.20;;;20.35;;
12587;SDS011;6359;51.450;7.346;2022-07-23T05:35:45;24.85;;;17.63;;
12587;SDS011;6359;51.450;7.346;2022-07-23T05:38:12;29.55;;;19.52;;
12587;SDS011;6359;51.450;7.346;2022-07-23T05:40:40;31.23;;;18.98;;
12587;SDS011;6359;51.450;7.346;2022-07-23T05:43:07;33.63;;;20.48;;
12587;SDS011;6359;51.450;7.346;2022-07-23T05:45:34;33.25;;;19.30;;
12587;SDS011;6359;51.450;7.346;2022-07-23T05:48:01;26.05;;;19.50;;
12587;SDS011;6359;51.450;7.346;2022-07-23T05:50:28;30.55;;;18.58;;
12587;SDS011;6359;51.450;7.346;2022-07-23T05:52:55;26.15;;;18.70;;
12587;SDS011;6359;51.450;7.346;2022-07-23T05:55:22;27.95;;;18.15;;
12587;SDS011;6359;51.450;7.346;2022-07-23T05:57:50;25.10;;;18.98;;
12587;SDS011;6359;51.450;7.346;2022-07-23T06:00:17;29.20;;;19.60;;
12587;SDS011;6359;51.450;7.346;2022-07-23T06:02:44;29.20;;;20.80;;
12587;SDS011;6359;51.450;7.346;2022-07-23T06:05:11;27.60;;;20.67;;
12587;SDS011;6359;51.450;7.346;2022-07-23T06:07:38;27.48;;;21.13;;
12587;SDS011;6359;51.450;7.346;2022-07-23T06:10:05;28.95;;;20.83;;
12587;SDS011;6359;51.450;7.346;2022-07-23T06:12:33;25.00;;;18.38;;
12587;SDS011;6359;51.450;7.346;2022-07-23T06:15:01;28.52;;;20.30;;
12587;SDS011;6359;51.450;7.346;2022-07-23T06:17:29;33.50;;;20.10;;
12587;SDS011;6359;51.450;7.346;2022-07-23T06:19:56;27.73;;;20.45;;
12587;SDS011;6359;51.450;7.346;2022-07-23T06:22:23;31.88;;;20.48;;
12587;SDS011;6359;51.450;7.346;2022-07-23T06:24:50;27.77;;;20.83;;
12587;SDS011;6359;51.450;7.346;2022-07-23T06:27:17;32.22;;;21.00;;
12587;SDS011;6359;51.450;7.346;2022-07-23T06:29:45;27.48;;;20.38;;
12587;SDS011;6359;51.450;7.346;2022-07-23T06:32:13;29.35;;;20.63;;
12587;SDS011;6359;51.450;7.346;2022-07-23T06:34:40;25.77;;;20.38;;
12587;SDS011;6359;51.450;7.346;2022-07-23T06:37:07;29.75;;;21.30;;
12587;SDS011;6359;51.450;7.346;2022-07-23T06:39:34;32.30;;;20.55;;
12587;SDS011;6359;51.450;7.346;2022-07-23T06:42:00;30.45;;;20.27;;
12587;SDS011;6359;51.450;7.346;2022-07-23T06:44:27;28.00;;;20.40;;
12587;SDS011;6359;51.450;7.346;2022-07-23T06:46:54;25.90;;;18.77;;
12587;SDS011;6359;51.450;7.346;2022-07-23T06:49:23;25.35;;;19.20;;
12587;SDS011;6359;51.450;7.346;2022-07-23T06:51:50;29.55;;;19.60;;
12587;SDS011;6359;51.450;7.346;2022-07-23T06:54:16;26.20;;;19.27;;
12587;SDS011;6359;51.450;7.346;2022-07-23T06:56:43;26.60;;;19.67;;
12587;SDS011;6359;51.450;7.346;2022-07-23T06:59:10;27.50;;;20.77;;
12587;SDS011;6359;51.450;7.346;2022-07-23T07:01:37;24.77;;;19.23;;
12587;SDS011;6359;51.450;7.346;2022-07-23T07:04:04;25.52;;;20.15;;
12587;SDS011;6359;51.450;7.346;2022-07-23T07:06:32;26.50;;;20.27;;
12587;SDS011;6359;51.450;7.346;2022-07-23T07:08:59;21.52;;;18.98;;
12587;SDS011;6359;51.450;7.346;2022-07-23T07:11:26;25.73;;;17.83;;
12587;SDS011;6359;51.450;7.346;2022-07-23T07:13:53;24.58;;;18.33;;
12587;SDS011;6359;51.450;7.346;2022-07-23T07:16:20;22.20;;;18.42;;
12587;SDS011;6359;51.450;7.346;2022-07-23T07:18:47;22.77;;;18.98;;
12587;SDS011;6359;51.450;7.346;2022-07-23T07:21:14;24.02;;;20.35;;
12587;SDS011;6359;51.450;7.346;2022-07-23T07:23:42;32.28;;;21.50;;
12587;SDS011;6359;51.450;7.346;2022-07-23T07:26:09;23.92;;;20.77;;
12587;SDS011;6359;51.450;7.346;2022-07-23T07:28:36;25.42;;;19.48;;
12587;SDS011;6359;51.450;7.346;2022-07-23T07:31:03;24.90;;;19.80;;
12587;SDS011;6359;51.450;7.346;2022-07-23T07:33:30;20.77;;;16.35;;
12587;SDS011;6359;51.450;7.346;2022-07-23T07:35:57;26.58;;;16.75;;
12587;SDS011;6359;51.450;7.346;2022-07-23T07:38:25;24.48;;;16.52;;
12587;SDS011;6359;51.450;7.346;2022-07-23T07:40:54;18.83;;;15.40;;
12587;SDS011;6359;51.450;7.346;2022-07-23T07:43:20;19.90;;;16.33;;
12587;SDS011;6359;51.450;7.346;2022-07-23T07:45:47;24.05;;;16.88;;
12587;SDS011;6359;51.450;7.346;2022-07-23T07:48:14;18.23;;;14.15;;
12587;SDS011;6359;51.450;7.346;2022-07-23T07:50:41;18.02;;;15.68;;
12587;SDS011;6359;51.450;7.346;2022-07-23T07:53:08;18.50;;;15.77;;
12587;SDS011;6359;51.450;7.346;2022-07-23T07:55:35;18.10;;;16.13;;
12587;SDS011;6359;51.450;7.346;2022-07-23T07:58:03;20.40;;;16.90;;
12587;SDS011;6359;51.450;7.346;2022-07-23T08:00:30;18.67;;;16.67;;
12587;SDS011;6359;51.450;7.346;2022-07-23T08:02:58;17.50;;;15.48;;
12587;SDS011;6359;51.450;7.346;2022-07-23T08:05:25;18.67;;;15.23;;
12587;SDS011;6359;51.450;7.346;2022-07-23T08:07:54;19.63;;;15.48;;
12587;SDS011;6359;51.450;7.346;2022-07-23T08:10:22;15.50;;;13.90;;
12587;SDS011;6359;51.450;7.346;2022-07-23T08:12:49;13.90;;;12.25;;
12587;SDS011;6359;51.450;7.346;2022-07-23T08:15:19;14.77;;;13.25;;
12587;SDS011;6359;51.450;7.346;2022-07-23T08:17:47;14.55;;;13.05;;
12587;SDS011;6359;51.450;7.346;2022-07-23T08:20:16;16.80;;;15.00;;
12587;SDS011;6359;51.450;7.346;2022-07-23T08:22:45;16.95;;;15.20;;
12587;SDS011;6359;51.450;7.346;2022-07-23T08:25:13;19.95;;;16.00;;
12587;SDS011;6359;51.450;7.346;2022-07-23T08:27:40;16.20;;;13.90;;
12587;SDS011;6359;51.450;7.346;2022-07-23T08:30:08;19.85;;;15.55;;
12587;SDS011;6359;51.450;7.346;2022-07-23T08:35:23;14.73;;;11.07;;
12587;SDS011;6359;51.450;7.346;2022-07-23T08:37:51;11.27;;;10.23;;
12587;SDS011;6359;51.450;7.346;2022-07-23T08:40:18;14.02;;;10.25;;
12587;SDS011;6359;51.450;7.346;2022-07-23T08:42:47;10.93;;;8.45;;
12587;SDS011;6359;51.450;7.346;2022-07-23T08:45:16;12.65;;;8.95;;
12587;SDS011;6359;51.450;7.346;2022-07-23T08:47:44;9.82;;;8.20;;
12587;SDS011;6359;51.450;7.346;2022-07-23T08:50:13;9.23;;;7.13;;
12587;SDS011;6359;51.450;7.346;2022-07-23T08:52:40;9.82;;;7.13;;
12587;SDS011;6359;51.450;7.346;2022-07-23T08:55:07;7.97;;;6.70;;
12587;SDS011;6359;51.450;7.346;2022-07-23T08:57:34;11.48;;;7.32;;
12587;SDS011;6359;51.450;7.346;2022-07-23T09:00:02;11.73;;;6.88;;
12587;SDS011;6359;51.450;7.346;2022-07-23T09:02:30;8.52;;;6.00;;
12587;SDS011;6359;51.450;7.346;2022-07-23T09:04:57;7.60;;;5.80;;
12587;SDS011;6359;51.450;7.346;2022-07-23T09:07:25;6.97;;;5.15;;
12587;SDS011;6359;51.450;7.346;2022-07-23T09:10:04;7.25;;;5.50;;
12587;SDS011;6359;51.450;7.346;2022-07-23T09:12:33;5.93;;;5.32;;
12587;SDS011;6359;51.450;7.346;2022-07-23T09:15:03;7.40;;;5.10;;
12587;SDS011;6359;51.450;7.346;2022-07-23T09:17:36;6.00;;;5.13;;
12587;SDS011;6359;51.450;7.346;2022-07-23T09:20:07;4.72;;;4.28;;
12587;SDS011;6359;51.450;7.346;2022-07-23T09:22:37;5.25;;;4.72;;
12587;SDS011;6359;51.450;7.346;2022-07-23T09:25:06;7.47;;;4.63;;
12587;SDS011;6359;51.450;7.346;2022-07-23T09:27:51;7.72;;;4.95;;
12587;SDS011;6359;51.450;7.346;2022-07-23T09:30:19;10.43;;;8.05;;
12587;SDS011;6359;51.450;7.346;2022-07-23T09:35:43;6.25;;;3.63;;
12587;SDS011;6359;51.450;7.346;2022-07-23T09:38:16;7.45;;;4.30;;
12587;SDS011;6359;51.450;7.346;2022-07-23T09:40:44;7.13;;;4.28;;
12587;SDS011;6359;51.450;7.346;2022-07-23T09:43:12;6.18;;;4.38;;
12587;SDS011;6359;51.450;7.346;2022-07-23T09:45:39;5.50;;;4.03;;
12587;SDS011;6359;51.450;7.346;2022-07-23T09:48:12;5.03;;;3.60;;
12587;SDS011;6359;51.450;7.346;2022-07-23T09:50:42;4.45;;;3.60;;
12587;SDS011;6359;51.450;7.346;2022-07-23T09:53:09;9.65;;;5.10;;
12587;SDS011;6359;51.450;7.346;2022-07-23T09:55:50;5.18;;;3.63;;
12587;SDS011;6359;51.450;7.346;2022-07-23T09:58:21;3.80;;;3.42;;
12587;SDS011;6359;51.450;7.346;2022-07-23T10:00:50;8.52;;;4.75;;
12587;SDS011;6359;51.450;7.346;2022-07-23T10:03:18;5.20;;;4.00;;
12587;SDS011;6359;51.450;7.346;2022-07-23T10:05:46;6.65;;;3.90;;
12587;SDS011;6359;51.450;7.346;2022-07-23T10:08:14;4.72;;;3.47;;
12587;SDS011;6359;51.450;7.346;2022-07-23T10:10:45;5.80;;;4.03;;
12587;SDS011;6359;51.450;7.346;2022-07-23T10:13:15;5.95;;;3.97;;
12587;SDS011;6359;51.450;7.346;2022-07-23T10:15:59;4.32;;;3.65;;
12587;SDS011;6359;51.450;7.346;2022-07-23T10:18:27;6.60;;;3.97;;
12587;SDS011;6359;51.450;7.346;2022-07-23T10:20:56;4.35;;;3.88;;
12587;SDS011;6359;51.450;7.346;2022-07-23T10:23:24;4.57;;;3.85;;
12587;SDS011;6359;51.450;7.346;2022-07-23T10:25:58;5.45;;;3.50;;
12587;SDS011;6359;51.450;7.346;2022-07-23T10:28:45;5.20;;;3.15;;
12587;SDS011;6359;51.450;7.346;2022-07-23T10:31:26;7.75;;;4.25;;
12587;SDS011;6359;51.450;7.346;2022-07-23T10:34:02;4.35;;;3.05;;
12587;SDS011;6359;51.450;7.346;2022-07-23T10:36:40;3.67;;;3.17;;
12587;SDS011;6359;51.450;7.346;2022-07-23T10:39:14;3.35;;;3.03;;
12587;SDS011;6359;51.450;7.346;2022-07-23T10:41:45;3.03;;;2.55;;
12587;SDS011;6359;51.450;7.346;2022-07-23T10:44:14;3.88;;;3.28;;
12587;SDS011;6359;51.450;7.346;2022-07-23T10:46:54;6.70;;;3.22;;
12587;SDS011;6359;51.450;7.346;2022-07-23T10:49:40;4.97;;;2.97;;
12587;SDS011;6359;51.450;7.346;2022-07-23T10:52:20;5.15;;;3.03;;
12587;SDS011;6359;51.450;7.346;2022-07-23T10:54:49;3.85;;;3.42;;
12587;SDS011;6359;51.450;7.346;2022-07-23T10:57:18;5.28;;;3.17;;
12587;SDS011;6359;51.450;7.346;2022-07-23T11:02:43;3.78;;;2.80;;
12587;SDS011;6359;51.450;7.346;2022-07-23T11:05:12;5.68;;;4.07;;
12587;SDS011;6359;51.450;7.346;2022-07-23T11:10:53;3.67;;;2.60;;
12587;SDS011;6359;51.450;7.346;2022-07-23T11:13:29;2.50;;;2.30;;
12587;SDS011;6359;51.450;7.346;2022-07-23T11:16:06;3.55;;;2.60;;
12587;SDS011;6359;51.450;7.346;2022-07-23T11:21:40;2.60;;;2.30;;
12587;SDS011;6359;51.450;7.346;2022-07-23T11:24:17;6.05;;;2.70;;
12587;SDS011;6359;51.450;7.346;2022-07-23T11:29:37;5.13;;;2.03;;
12587;SDS011;6359;51.450;7.346;2022-07-23T11:32:18;4.30;;;2.42;;
12587;SDS011;6359;51.450;7.346;2022-07-23T11:34:51;3.63;;;2.28;;
12587;SDS011;6359;51.450;7.346;2022-07-23T11:37:34;6.88;;;2.88;;
12587;SDS011;6359;51.450;7.346;2022-07-23T11:40:04;4.80;;;2.90;;
12587;SDS011;6359;51.450;7.346;2022-07-23T11:42:35;4.32;;;3.00;;
12587;SDS011;6359;51.450;7.346;2022-07-23T11:45:04;6.93;;;3.30;;
12587;SDS011;6359;51.450;7.346;2022-07-23T11:47:34;4.32;;;2.75;;
12587;SDS011;6359;51.450;7.346;2022-07-23T11:50:03;6.28;;;2.70;;
12587;SDS011;6359;51.450;7.346;2022-07-23T11:52:32;3.80;;;2.55;;
12587;SDS011;6359;51.450;7.346;2022-07-23T11:55:00;5.07;;;2.97;;
12587;SDS011;6359;51.450;7.346;2022-07-23T11:57:30;4.32;;;2.80;;
12587;SDS011;6359;51.450;7.346;2022-07-23T12:00:00;3.17;;;2.45;;
12587;SDS011;6359;51.450;7.346;2022-07-23T12:02:30;4.70;;;2.72;;
12587;SDS011;6359;51.450;7.346;2022-07-23T12:04:58;3.15;;;2.60;;
12587;SDS011;6359;51.450;7.346;2022-07-23T12:07:26;4.32;;;2.70;;
12587;SDS011;6359;51.450;7.346;2022-07-23T12:09:57;4.63;;;2.63;;
12587;SDS011;6359;51.450;7.346;2022-07-23T12:12:26;3.55;;;2.63;;
12587;SDS011;6359;51.450;7.346;2022-07-23T12:14:54;3.47;;;2.83;;
12587;SDS011;6359;51.450;7.346;2022-07-23T12:17:27;3.85;;;2.50;;
12587;SDS011;6359;51.450;7.346;2022-07-23T12:19:56;3.42;;;2.78;;
12587;SDS011;6359;51.450;7.346;2022-07-23T12:22:32;2.88;;;2.20;;
12587;SDS011;6359;51.450;7.346;2022-07-23T12:25:03;3.42;;;2.42;;
12587;SDS011;6359;51.450;7.346;2022-07-23T12:27:32;4.25;;;2.72;;
12587;SDS011;6359;51.450;7.346;2022-07-23T12:29:58;2.88;;;2.20;;
12587;SDS011;6359;51.450;7.346;2022-07-23T12:32:42;3.80;;;3.20;;
12587;SDS011;6359;51.450;7.346;2022-07-23T12:35:11;4.45;;;3.30;;
12587;SDS011;6359;51.450;7.346;2022-07-23T12:37:39;5.82;;;3.60;;
12587;SDS011;6359;51.450;7.346;2022-07-23T12:40:20;4.07;;;2.85;;
12587;SDS011;6359;51.450;7.346;2022-07-23T12:42:53;5.70;;;2.47;;
12587;SDS011;6359;51.450;7.346;2022-07-23T12:45:21;6.82;;;2.90;;
12587;SDS011;6359;51.450;7.346;2022-07-23T12:47:58;2.33;;;2.10;;
12587;SDS011;6359;51.450;7.346;2022-07-23T12:50:40;4.82;;;2.85;;
12587;SDS011;6359;51.450;7.346;2022-07-23T12:53:10;4.28;;;2.95;;
12587;SDS011;6359;51.450;7.346;2022-07-23T12:55:39;4.25;;;2.50;;
12587;SDS011;6359;51.450;7.346;2022-07-23T12:58:08;2.42;;;2.22;;
12587;SDS011;6359;51.450;7.346;2022-07-23T13:00:53;5.70;;;2.70;;
12587;SDS011;6359;51.450;7.346;2022-07-23T13:03:23;6.38;;;3.13;;
12587;SDS011;6359;51.450;7.346;2022-07-23T13:05:53;3.50;;;2.30;;
12587;SDS011;6359;51.450;7.346;2022-07-23T13:08:21;5.82;;;2.25;;
12587;SDS011;6359;51.450;7.346;2022-07-23T13:10:49;3.47;;;2.65;;
12587;SDS011;6359;51.450;7.346;2022-07-23T13:13:19;3.63;;;2.10;;
12587;SDS011;6359;51.450;7.346;2022-07-23T13:15:47;5.15;;;2.83;;
12587;SDS011;6359;51.450;7.346;2022-07-23T13:18:14;5.05;;;2.15;;
12587;SDS011;6359;51.450;7.346;2022-07-23T13:20:42;4.93;;;2.40;;
12587;SDS011;6359;51.450;7.346;2022-07-23T13:23:10;4.40;;;2.60;;
12587;SDS011;6359;51.450;7.346;2022-07-23T13:25:37;3.67;;;2.70;;
12587;SDS011;6359;51.450;7.346;2022-07-23T13:28:04;4.18;;;2.90;;
12587;SDS011;6359;51.450;7.346;2022-07-23T13:30:31;3.88;;;2.70;;
12587;SDS011;6359;51.450;7.346;2022-07-23T13:32:58;5.13;;;2.47;;
12587;SDS011;6359;51.450;7.346;2022-07-23T13:35:26;2.60;;;2.40;;
12587;SDS011;6359;51.450;7.346;2022-07-23T13:37:53;4.25;;;2.50;;
12587;SDS011;6359;51.450;7.346;2022-07-23T13:40:21;2.97;;;2.22;;
12587;SDS011;6359;51.450;7.346;2022-07-23T13:42:48;5.90;;;3.60;;
12587;SDS011;6359;51.450;7.346;2022-07-23T13:45:15;7.95;;;2.50;;
12587;SDS011;6359;51.450;7.346;2022-07-23T13:47:42;2.85;;;2.10;;
12587;SDS011;6359;51.450;7.346;2022-07-23T13:50:09;3.75;;;2.28;;
12587;SDS011;6359;51.450;7.346;2022-07-23T13:52:36;2.30;;;2.08;;
12587;SDS011;6359;51.450;7.346;2022-07-23T13:55:03;4.13;;;2.53;;
12587;SDS011;6359;51.450;7.346;2022-07-23T13:57:34;2.22;;;2.03;;
12587;SDS011;6359;51.450;7.346;2022-07-23T14:00:01;5.32;;;2.63;;
12587;SDS011;6359;51.450;7.346;2022-07-23T14:02:29;3.95;;;2.20;;
12587;SDS011;6359;51.450;7.346;2022-07-23T14:04:56;2.60;;;2.20;;
12587;SDS011;6359;51.450;7.346;2022-07-23T14:07:23;4.50;;;2.40;;
12587;SDS011;6359;51.450;7.346;2022-07-23T14:09:50;3.05;;;2.05;;
12587;SDS011;6359;51.450;7.346;2022-07-23T14:12:17;4.90;;;2.00;;
12587;SDS011;6359;51.450;7.346;2022-07-23T14:14:45;2.45;;;1.90;;
12587;SDS011;6359;51.450;7.346;2022-07-23T14:17:12;2.55;;;1.85;;
12587;SDS011;6359;51.450;7.346;2022-07-23T14:19:39;2.35;;;1.90;;
12587;SDS011;6359;51.450;7.346;2022-07-23T14:22:06;2.63;;;2.20;;
12587;SDS011;6359;51.450;7.346;2022-07-23T14:24:33;6.20;;;2.13;;
12587;SDS011;6359;51.450;7.346;2022-07-23T14:27:00;2.05;;;1.80;;
12587;SDS011;6359;51.450;7.346;2022-07-23T14:29:29;2.53;;;1.90;;
12587;SDS011;6359;51.450;7.346;2022-07-23T14:31:57;5.25;;;2.50;;
12587;SDS011;6359;51.450;7.346;2022-07-23T14:34:25;2.63;;;2.10;;
12587;SDS011;6359;51.450;7.346;2022-07-23T14:36:52;5.72;;;2.28;;
12587;SDS011;6359;51.450;7.346;2022-07-23T14:39:20;3.95;;;2.55;;
12587;SDS011;6359;51.450;7.346;2022-07-23T14:41:47;3.45;;;2.50;;
12587;SDS011;6359;51.450;7.346;2022-07-23T14:44:14;5.82;;;2.40;;
12587;SDS011;6359;51.450;7.346;2022-07-23T14:46:41;2.78;;;2.10;;
12587;SDS011;6359;51.450;7.346;2022-07-23T14:49:09;5.10;;;2.72;;
12587;SDS011;6359;51.450;7.346;2022-07-23T14:51:36;4.10;;;2.20;;
12587;SDS011;6359;51.450;7.346;2022-07-23T14:54:03;2.17;;;2.03;;
12587;SDS011;6359;51.450;7.346;2022-07-23T14:56:31;2.28;;;2.08;;
12587;SDS011;6359;51.450;7.346;2022-07-23T14:58:58;2.42;;;2.22;;
12587;SDS011;6359;51.450;7.346;2022-07-23T15:01:25;3.00;;;2.08;;
12587;SDS011;6359;51.450;7.346;2022-07-23T15:03:52;4.28;;;2.50;;
12587;SDS011;6359;51.450;7.346;2022-07-23T15:06:21;2.92;;;2.53;;
12587;SDS011;6359;51.450;7.346;2022-07-23T15:08:48;2.38;;;2.17;;
12587;SDS011;6359;51.450;7.346;2022-07-23T15:11:15;4.35;;;2.42;;